Flight Track Log - Related Links

Times and Time Zones

All times are in EDT time to prevent confusion due to time zone crossing. See the ASH1016 flight status page for this flight to view local times or setup timezone preferences in your user account.

Time Position Orientation Groundspeed Altitude Reporting Facility
EDT Latitude Longitude Course Direction KTS MPH feet Rate Location/Type
Sun 07:20:45 PM 21.3167 -157.9333 223° Southwest 130 150 900  Level Honolulu Center
Sun 07:21:45 PM 21.2833 -157.9667 223° Southwest 210 242 3,000 2,500 Climbing Honolulu Center
Sun 07:22:45 PM 21.2167 -157.9500 167° South 230 265 5,900 2,400 Climbing Honolulu Center
Sun 07:23:45 PM 21.2000 -157.8667 102° East 290 334 7,800 2,050 Climbing Honolulu Center
Sun 07:24:45 PM 21.1833 -157.7833 102° East 310 357 10,000 2,182 Climbing Honolulu Center
Sun 07:25:46 PM 21.1833 -157.6833 90° East 330 380 12,200 2,132 Climbing Honolulu Center
Sun 07:26:46 PM 21.1667 -157.5833 100° East 340 391 14,300 1,400 Climbing Honolulu Center
Sun 07:27:46 PM 21.1667 -157.4833 90° East 370 426 15,000 350 Climbing Honolulu Center
Sun 07:28:46 PM 21.1500 -157.3667 99° East 400 460 15,000  Level Honolulu Center
Sun 07:29:46 PM 21.1333 -157.2333 98° East 420 483 15,000  Level Honolulu Center
Sun 07:30:46 PM 21.1333 -157.1167 90° East 420 483 15,000  Level Honolulu Center
Sun 07:31:46 PM 21.1500 -156.9833 82° East 430 495 15,000  Level Honolulu Center
Sun 07:32:46 PM 21.1667 -156.8667 81° East 430 495 15,000 -1,100 Level Honolulu Center
Sun 07:33:46 PM 21.1833 -156.7333 82° East 420 483 12,800 -2,000 Descending Honolulu Center
Sun 07:34:46 PM 21.1833 -156.6167 90° East 370 426 11,000 -1,636 Descending Honolulu Center
Sun 07:35:47 PM 21.1667 -156.5167 100° East 320 368 9,500 -1,488 Descending Honolulu Center
Sun 07:36:47 PM 21.1500 -156.4333 102° East 290 334 8,000 -1,950 Descending Honolulu Center
Sun 07:37:47 PM 21.1333 -156.3667 105° East 280 322 5,600 -2,450 Descending Honolulu Center
Sun 07:38:47 PM 21.0833 -156.3000 129° Southeast 270 311 3,100 -2,000 Descending Honolulu Center
Sun 07:39:47 PM 21.0500 -156.3333 223° Southwest 220 253 1,600 -800 Descending Honolulu Center
Sun 07:40:47 PM 21.0000 -156.3667 212° Southwest 180 207 1,500 -150 Descending Honolulu Center
Sun 07:41:47 PM 20.9500 -156.3833 197° South 160 184 1,300 -450 Descending Honolulu Center
Sun 07:42:47 PM 20.9167 -156.4000 205° Southwest 130 150 600 -700 Descending Honolulu Center

Login

Don't have an account? Register now (free) for customized features, flight alerts, and more!